Time;durP1;ratioP1;P1;durP2;ratioP2;P2;SDS_P1;SDS_P2;PMS_P1;PMS_P2;Temp;Humidity;BMP_temperature;BMP_pressure;BME280_temperature;BME280_humidity;BME280_pressure;Samples;Min_cycle;Max_cycle;Signal;HPM_P1;HPM_P2
2023/05/06 00:01:45;;;;;;;0.50;0.45;;;;;;;12.15;86.52;100981.84;4985029;28;20116;-64
2023/05/06 00:04:10;;;;;;;0.82;0.82;;;;;;;12.28;85.98;100977.84;5002605;28;20049;-63
2023/05/06 00:06:35;;;;;;;0.65;0.50;;;;;;;12.23;86.67;100980.84;5004448;28;20546;-63
2023/05/06 00:09:01;;;;;;;1.88;0.60;;;;;;;12.22;86.60;100979.28;4996466;28;20037;-65
2023/05/06 00:11:26;;;;;;;2.65;0.75;;;;;;;12.29;85.87;100979.41;4994897;28;20566;-63
2023/05/06 00:13:52;;;;;;;1.55;0.60;;;;;;;12.36;85.80;100984.16;5000424;28;20414;-64
2023/05/06 00:16:18;;;;;;;0.47;0.40;;;;;;;12.43;85.25;100987.78;4985555;28;20045;-63
2023/05/06 00:18:43;;;;;;;3.30;0.60;;;;;;;12.48;84.82;100979.41;5003077;28;20572;-63
2023/05/06 00:21:09;;;;;;;7.13;0.82;;;;;;;12.42;85.97;100983.53;5004025;28;20113;-64
2023/05/06 00:23:34;;;;;;;1.58;0.90;;;;;;;12.63;84.60;100981.19;4998813;28;20092;-64
2023/05/06 00:25:59;;;;;;;2.10;0.63;;;;;;;12.45;85.44;100982.78;5002547;28;20505;-63
2023/05/06 00:28:25;;;;;;;1.00;0.50;;;;;;;12.66;84.70;100985.88;5005655;28;20692;-63
2023/05/06 00:30:50;;;;;;;0.50;0.50;;;;;;;12.59;83.80;100980.34;4997405;28;20018;-64
2023/05/06 00:33:16;;;;;;;0.55;0.55;;;;;;;12.23;85.37;100977.38;5010307;28;20030;-65
2023/05/06 00:35:41;;;;;;;2.60;0.65;;;;;;;12.20;85.71;100983.47;4995297;28;20426;-64
2023/05/06 00:38:12;;;;;;;0.90;0.85;;;;;;;12.12;86.31;100979.84;4989155;28;20037;-64
2023/05/06 00:40:38;;;;;;;0.63;0.52;;;;;;;12.14;86.57;100988.38;4987764;28;20061;-63
2023/05/06 00:43:03;;;;;;;0.52;0.52;;;;;;;12.18;86.70;100986.53;5000365;28;20499;-63
2023/05/06 00:45:29;;;;;;;0.85;0.85;;;;;;;12.35;86.63;100990.72;5000483;28;20030;-63
2023/05/06 00:47:55;;;;;;;3.53;0.98;;;;;;;12.35;86.53;100986.06;5001157;28;20030;-65
2023/05/06 00:50:21;;;;;;;0.77;0.77;;;;;;;12.41;86.26;100987.34;4987876;28;20072;-64
2023/05/06 00:52:47;;;;;;;0.85;0.70;;;;;;;12.52;86.20;100987.56;4992643;28;20053;-62
2023/05/06 00:55:13;;;;;;;1.10;0.80;;;;;;;12.34;86.21;100992.63;5008193;28;20025;-64
2023/05/06 00:57:41;;;;;;;1.20;0.57;;;;;;;12.37;85.82;100983.81;4999784;28;20044;-64
2023/05/06 01:00:07;;;;;;;0.70;0.60;;;;;;;12.23;87.16;100982.78;4997348;22;20033;-58
2023/05/06 01:02:33;;;;;;;0.80;0.80;;;;;;;12.44;86.81;100983.94;4984852;28;20056;-60
2023/05/06 01:04:59;;;;;;;0.63;0.52;;;;;;;12.39;86.48;100983.44;4998160;28;20116;-60
2023/05/06 01:07:38;;;;;;;0.45;0.45;;;;;;;12.21;87.13;100980.44;4994607;28;20088;-60
2023/05/06 01:10:18;;;;;;;0.60;0.60;;;;;;;12.01;88.13;100978.09;5003377;28;20032;-60
2023/05/06 01:13:11;;;;;;;1.25;0.50;;;;;;;12.18;88.30;100989.22;4983452;28;20036;-57
2023/05/06 01:15:41;;;;;;;0.65;0.65;;;;;;;12.24;88.35;100978.91;5004679;28;20022;-57
2023/05/06 01:18:10;;;;;;;1.27;0.93;;;;;;;12.25;88.67;100973.16;4992852;28;20037;-56
2023/05/06 01:20:37;;;;;;;1.63;0.60;;;;;;;12.05;89.14;100977.03;4994904;28;20036;-59
2023/05/06 01:23:12;;;;;;;0.82;0.73;;;;;;;12.02;89.78;100971.56;5009896;28;20084;-58
2023/05/06 01:25:40;;;;;;;0.88;0.68;;;;;;;12.14;89.92;100974.09;5000998;28;20084;-60
2023/05/06 01:28:11;;;;;;;0.63;0.50;;;;;;;12.22;89.32;100968.47;5004477;28;20030;-60
2023/05/06 01:30:54;;;;;;;1.20;0.70;;;;;;;12.06;90.32;100975.13;5005567;28;20052;-56
2023/05/06 01:33:38;;;;;;;1.00;0.50;;;;;;;12.24;90.03;100960.81;5002612;28;20073;-59
2023/05/06 01:36:04;;;;;;;0.40;0.40;;;;;;;12.29;89.28;100959.75;4972304;28;20637;-60
2023/05/06 01:38:48;;;;;;;0.70;0.55;;;;;;;12.16;89.74;100967.22;4991177;28;20040;-58
2023/05/06 01:41:15;;;;;;;0.90;0.70;;;;;;;12.30;89.10;100966.69;5001470;28;20027;-60
2023/05/06 01:43:43;;;;;;;0.95;0.60;;;;;;;12.25;90.18;100965.06;4990399;28;20034;-58
2023/05/06 01:46:20;;;;;;;0.73;0.73;;;;;;;12.08;89.98;100960.09;5007020;28;20033;-60
2023/05/06 01:48:51;;;;;;;2.45;0.80;;;;;;;12.27;89.48;100970.88;4989764;28;20038;-59
2023/05/06 01:51:16;;;;;;;0.80;0.55;;;;;;;12.18;90.21;100966.84;4996950;28;20041;-60
2023/05/06 01:53:42;;;;;;;0.95;0.70;;;;;;;12.12;90.49;100970.97;4994127;28;20038;-59
2023/05/06 01:56:08;;;;;;;0.60;0.50;;;;;;;12.23;90.40;100974.66;4999288;28;20028;-60
2023/05/06 01:58:33;;;;;;;1.02;0.85;;;;;;;12.37;89.57;100974.91;4985583;28;20038;-59
2023/05/06 02:00:58;;;;;;;0.52;0.52;;;;;;;12.10;90.30;100979.44;4990037;28;20030;-60
2023/05/06 02:03:24;;;;;;;3.17;0.73;;;;;;;12.18;90.47;100975.72;5001788;28;20049;-59
2023/05/06 02:05:50;;;;;;;0.60;0.60;;;;;;;12.15;90.25;100984.56;4978870;28;20034;-58
2023/05/06 02:08:15;;;;;;;0.73;0.40;;;;;;;12.07;90.98;100979.38;4993466;28;20045;-54
2023/05/06 02:10:43;;;;;;;0.20;0.20;;;;;;;11.95;91.54;100993.00;4990158;28;20140;-59
2023/05/06 02:13:10;;;;;;;0.85;0.57;;;;;;;12.07;91.17;100988.25;4993176;28;20025;-58
2023/05/06 02:15:35;;;;;;;1.00;0.65;;;;;;;12.16;90.88;100980.72;4989106;28;20030;-59
2023/05/06 02:18:01;;;;;;;8.75;0.93;;;;;;;12.16;90.68;100986.09;4974997;28;20026;-60
2023/05/06 02:20:27;;;;;;;0.68;0.57;;;;;;;12.14;90.61;100993.00;4970480;28;20035;-59
2023/05/06 02:22:55;;;;;;;2.15;1.08;;;;;;;12.09;91.35;100972.47;4992230;28;20027;-60
2023/05/06 02:25:21;;;;;;;0.73;0.47;;;;;;;12.24;90.47;100987.81;4982681;28;20030;-60
2023/05/06 02:27:46;;;;;;;1.15;0.70;;;;;;;12.20;90.43;100975.38;4998895;28;20040;-58
2023/05/06 02:30:12;;;;;;;1.33;1.25;;;;;;;12.19;90.22;100984.63;5005960;28;20513;-59
2023/05/06 02:32:37;;;;;;;2.30;1.08;;;;;;;12.22;90.24;100992.00;4991492;28;20083;-59
2023/05/06 02:35:03;;;;;;;2.10;0.68;;;;;;;12.22;90.07;100978.50;4984920;28;20437;-58
2023/05/06 02:37:29;;;;;;;4.30;1.35;;;;;;;12.30;90.47;100986.38;4990241;28;20465;-59
2023/05/06 02:39:54;;;;;;;2.63;0.93;;;;;;;12.27;90.66;100989.78;4991454;28;20492;-59
2023/05/06 02:42:20;;;;;;;1.20;0.73;;;;;;;12.16;90.30;100980.72;4991550;28;20030;-58
2023/05/06 02:44:46;;;;;;;1.40;0.77;;;;;;;11.96;92.25;100986.47;4998550;28;20037;-60
2023/05/06 02:47:11;;;;;;;1.20;0.93;;;;;;;12.21;91.39;100982.34;4991357;28;20026;-56
2023/05/06 02:49:37;;;;;;;0.60;0.60;;;;;;;11.80;92.48;100994.66;4974740;28;20404;-57
2023/05/06 02:52:03;;;;;;;1.23;0.88;;;;;;;11.58;94.22;100990.69;5002625;28;20295;-55
2023/05/06 02:54:28;;;;;;;0.57;0.47;;;;;;;11.65;94.55;100990.06;4991605;28;20084;-53
2023/05/06 02:56:54;;;;;;;4.75;0.75;;;;;;;11.75;93.44;100984.91;4986071;28;20558;-58
2023/05/06 02:59:20;;;;;;;0.63;0.63;;;;;;;11.91;93.34;100994.84;4992010;28;20431;-54
2023/05/06 03:01:46;;;;;;;0.70;0.68;;;;;;;11.86;93.32;100984.34;4991959;28;20034;-58
2023/05/06 03:04:12;;;;;;;1.00;0.73;;;;;;;12.05;92.61;100987.03;4999844;28;20041;-55
2023/05/06 03:06:37;;;;;;;2.08;0.57;;;;;;;12.02;92.96;100983.13;4975937;28;20487;-56
2023/05/06 03:09:03;;;;;;;1.15;0.85;;;;;;;12.01;92.01;100981.56;5010395;28;20022;-59
2023/05/06 03:11:30;;;;;;;1.27;0.85;;;;;;;12.14;92.06;100982.97;4978391;28;20069;-56
2023/05/06 03:13:57;;;;;;;0.68;0.55;;;;;;;12.01;92.10;100986.97;4983108;28;20038;-58
2023/05/06 03:16:24;;;;;;;0.47;0.47;;;;;;;12.11;91.91;100980.22;4985227;28;20080;-55
2023/05/06 03:18:51;;;;;;;4.47;1.02;;;;;;;12.04;91.95;100980.09;4989828;28;20057;-58
2023/05/06 03:21:17;;;;;;;1.02;0.68;;;;;;;12.05;92.28;100982.44;4992394;28;20456;-58
2023/05/06 03:23:45;;;;;;;1.08;1.00;;;;;;;12.08;92.09;100970.91;4990481;28;20412;-57
2023/05/06 03:26:10;;;;;;;0.70;0.70;;;;;;;12.07;92.73;100974.75;4988798;28;20100;-56
2023/05/06 03:28:36;;;;;;;1.58;1.00;;;;;;;12.05;92.80;100970.84;4984338;28;20077;-58
2023/05/06 03:31:03;;;;;;;1.98;1.10;;;;;;;11.88;92.74;100972.06;4984294;28;20023;-56
2023/05/06 03:33:31;;;;;;;2.80;0.80;;;;;;;12.00;92.56;100974.59;4982046;28;20334;-56
2023/05/06 03:35:57;;;;;;;0.80;0.65;;;;;;;12.04;92.65;100975.44;4985308;28;20049;-58
2023/05/06 03:38:23;;;;;;;1.48;1.20;;;;;;;12.00;92.18;100974.59;4999784;28;20104;-58
2023/05/06 03:40:55;;;;;;;0.98;0.60;;;;;;;12.03;92.01;100973.13;5001175;28;20061;-55
2023/05/06 03:43:24;;;;;;;1.42;0.85;;;;;;;12.00;92.37;100969.19;4984840;28;20062;-56
2023/05/06 03:45:53;;;;;;;1.67;1.15;;;;;;;11.95;92.34;100966.00;4991744;28;20018;-56
2023/05/06 03:48:19;;;;;;;1.02;0.93;;;;;;;11.88;92.96;100960.47;4972315;28;20434;-57
2023/05/06 03:50:45;;;;;;;1.17;1.00;;;;;;;11.93;92.87;100960.97;4993474;28;20637;-57
2023/05/06 03:53:12;;;;;;;2.22;0.93;;;;;;;11.85;92.63;100961.97;4990472;28;20041;-57
2023/05/06 03:55:40;;;;;;;0.38;0.38;;;;;;;11.75;92.59;100957.91;4990271;28;20072;-56
2023/05/06 03:58:07;;;;;;;1.33;0.82;;;;;;;11.75;93.10;100960.63;4985947;28;20133;-58
2023/05/06 04:00:32;;;;;;;0.57;0.40;;;;;;;12.00;92.22;100966.50;4984881;28;20017;-53
2023/05/06 04:02:58;;;;;;;0.57;0.57;;;;;;;11.95;92.39;100966.00;5004171;28;20029;-55
2023/05/06 04:05:33;;;;;;;0.55;0.47;;;;;;;11.87;92.43;100964.31;4986609;28;20037;-56
2023/05/06 04:08:00;;;;;;;0.73;0.73;;;;;;;11.87;92.54;100957.00;4994818;28;20026;-58
2023/05/06 04:10:29;;;;;;;0.60;0.60;;;;;;;11.88;91.47;100963.97;4995139;28;20029;-52
2023/05/06 04:13:00;;;;;;;0.93;0.70;;;;;;;11.78;93.54;100959.94;4988003;28;20030;-57
2023/05/06 04:15:34;;;;;;;1.17;0.80;;;;;;;11.91;93.22;100962.47;4989158;28;20121;-58
2023/05/06 04:18:01;;;;;;;1.10;0.90;;;;;;;11.94;92.28;100964.47;4989816;28;20493;-57
2023/05/06 04:20:27;;;;;;;0.75;0.75;;;;;;;11.88;93.43;100966.66;5007090;28;20034;-57
2023/05/06 04:22:52;;;;;;;0.80;0.80;;;;;;;12.11;92.15;100969.41;4993755;28;20129;-56
2023/05/06 04:25:20;;;;;;;0.80;0.77;;;;;;;12.12;91.96;100962.88;4990722;28;20025;-55
2023/05/06 04:27:46;;;;;;;1.42;0.68;;;;;;;11.77;92.77;100958.34;4985655;28;20034;-55
2023/05/06 04:30:12;;;;;;;4.78;0.95;;;;;;;11.81;93.15;100961.13;4994797;28;20030;-56
2023/05/06 04:32:38;;;;;;;0.88;0.88;;;;;;;11.73;92.95;100964.78;4984930;28;20031;-56
2023/05/06 04:35:05;;;;;;;2.92;1.00;;;;;;;11.91;93.15;100962.47;4988457;28;20030;-55
2023/05/06 04:37:31;;;;;;;0.85;0.77;;;;;;;11.89;91.80;100970.91;4985911;28;20018;-53
2023/05/06 04:40:15;;;;;;;2.05;1.25;;;;;;;11.86;92.12;100979.72;4991662;28;20209;-56
2023/05/06 04:42:43;;;;;;;0.75;0.75;;;;;;;11.86;92.91;100977.03;4960764;28;20030;-56
2023/05/06 04:45:15;;;;;;;1.00;0.90;;;;;;;11.67;93.67;100980.50;4996723;28;20034;-56
2023/05/06 04:47:44;;;;;;;0.55;0.55;;;;;;;11.75;93.87;100990.28;4994306;28;20456;-55
2023/05/06 04:50:10;;;;;;;0.55;0.55;;;;;;;11.78;94.30;100991.50;4993862;28;20080;-56
2023/05/06 04:52:36;;;;;;;0.70;0.60;;;;;;;11.85;92.61;100991.66;4997274;28;20041;-57
2023/05/06 04:55:03;;;;;;;1.40;0.90;;;;;;;11.78;93.82;100995.00;4988925;28;20041;-56
2023/05/06 04:57:31;;;;;;;0.85;0.73;;;;;;;11.96;92.64;101003.47;4988079;28;20115;-58
2023/05/06 04:59:57;;;;;;;0.80;0.80;;;;;;;11.97;92.89;101007.72;4996405;28;20524;-57
2023/05/06 05:02:23;;;;;;;1.38;1.00;;;;;;;11.90;93.14;101004.88;4988084;28;20022;-58
2023/05/06 05:04:48;;;;;;;1.95;1.10;;;;;;;11.94;93.25;101003.03;4986913;28;20038;-52
2023/05/06 05:07:14;;;;;;;1.73;1.30;;;;;;;11.94;93.12;101021.94;5004032;28;20029;-56
2023/05/06 05:09:41;;;;;;;1.75;0.73;;;;;;;11.90;93.37;101029.16;4993153;28;20030;-56
2023/05/06 05:12:06;;;;;;;1.63;1.13;;;;;;;11.93;93.58;101028.44;4981682;28;20088;-54
2023/05/06 05:14:35;;;;;;;1.27;0.80;;;;;;;11.97;93.95;101032.00;4988066;28;20033;-50
2023/05/06 05:17:02;;;;;;;1.63;0.95;;;;;;;11.90;93.29;101031.88;4985644;28;20565;-53
2023/05/06 05:19:27;;;;;;;1.60;0.98;;;;;;;11.95;93.28;101031.56;4990156;28;20042;-53
2023/05/06 05:21:54;;;;;;;1.02;0.70;;;;;;;12.01;93.34;101029.38;4987421;28;20173;-56
2023/05/06 05:24:21;;;;;;;1.08;0.90;;;;;;;12.02;92.31;101029.00;4992691;28;20599;-55
2023/05/06 05:26:47;;;;;;;2.55;1.10;;;;;;;11.92;93.00;101024.19;4983676;28;20113;-57
2023/05/06 05:29:13;;;;;;;2.33;1.48;;;;;;;12.08;92.33;101026.84;4990505;28;20029;-56
2023/05/06 05:31:39;;;;;;;2.45;1.38;;;;;;;12.14;92.40;101033.50;4993282;28;20484;-57
2023/05/06 05:34:05;;;;;;;1.00;0.88;;;;;;;12.07;92.31;101033.34;5011003;28;20034;-53
2023/05/06 05:36:31;;;;;;;0.57;0.57;;;;;;;12.14;91.78;101028.88;4989499;28;20121;-55
2023/05/06 05:38:58;;;;;;;1.00;0.80;;;;;;;12.28;91.11;101034.56;4998431;28;20041;-55
2023/05/06 05:41:30;;;;;;;1.13;0.90;;;;;;;12.14;91.43;101028.09;4977175;28;20025;-54
2023/05/06 05:43:55;;;;;;;1.15;0.93;;;;;;;12.01;91.96;101034.78;4993527;28;20720;-50
2023/05/06 05:46:21;;;;;;;1.50;0.85;;;;;;;12.01;92.43;101040.97;4989526;28;20025;-51
2023/05/06 05:48:48;;;;;;;1.02;0.70;;;;;;;12.07;92.11;101039.53;5010597;28;20092;-50
2023/05/06 05:51:15;;;;;;;1.60;0.90;;;;;;;12.12;91.89;101039.25;4990006;28;20080;-53
2023/05/06 05:53:43;;;;;;;1.00;0.93;;;;;;;12.12;91.58;101035.75;5008694;28;20034;-59
2023/05/06 05:56:08;;;;;;;1.27;0.93;;;;;;;12.05;92.57;101043.72;4992257;28;20022;-53
2023/05/06 05:58:34;;;;;;;1.25;1.15;;;;;;;12.06;92.39;101050.72;5004153;28;20041;-55
2023/05/06 06:01:00;;;;;;;0.82;0.80;;;;;;;11.90;93.10;101052.66;5000702;28;20042;-57
2023/05/06 06:03:26;;;;;;;0.77;0.75;;;;;;;11.97;92.23;101044.72;4985721;28;20035;-55
2023/05/06 06:05:53;;;;;;;2.65;0.90;;;;;;;11.98;92.63;101054.38;5004295;28;20034;-51
2023/05/06 06:08:20;;;;;;;1.25;1.00;;;;;;;11.95;92.93;101050.47;4992077;28;20664;-55
2023/05/06 06:10:50;;;;;;;1.88;1.27;;;;;;;12.06;92.46;101053.41;4986033;28;20073;-57
2023/05/06 06:13:20;;;;;;;1.65;1.38;;;;;;;12.04;92.67;101053.72;4986682;28;20444;-54
2023/05/06 06:15:46;;;;;;;1.20;1.00;;;;;;;11.99;91.83;101045.94;4987530;28;20570;-59
2023/05/06 06:18:11;;;;;;;1.65;1.10;;;;;;;11.98;92.27;101049.75;5003197;28;20489;-56
2023/05/06 06:20:37;;;;;;;1.60;0.93;;;;;;;11.61;94.11;101043.91;4989442;28;20034;-54
2023/05/06 06:23:03;;;;;;;0.93;0.88;;;;;;;11.83;93.58;101060.63;4987316;28;20106;-56
2023/05/06 06:25:28;;;;;;;1.00;0.80;;;;;;;11.86;93.31;101055.28;4984144;28;20034;-53
2023/05/06 06:27:56;;;;;;;1.55;0.90;;;;;;;11.89;93.32;101054.56;4990619;28;20100;-59
2023/05/06 06:30:22;;;;;;;6.35;1.25;;;;;;;11.76;94.63;101050.44;4983948;28;20037;-52
2023/05/06 06:32:50;;;;;;;2.50;1.40;;;;;;;11.95;93.74;101057.78;5007046;28;20041;-55
2023/05/06 06:35:15;;;;;;;1.27;1.00;;;;;;;12.00;93.35;101055.56;4980547;28;20076;-56
2023/05/06 06:37:41;;;;;;;1.92;0.80;;;;;;;11.95;94.18;101057.78;5009037;28;20382;-50
2023/05/06 06:40:09;;;;;;;2.65;1.05;;;;;;;11.95;94.36;101057.78;5000544;28;20465;-51
2023/05/06 06:42:34;;;;;;;4.00;1.20;;;;;;;11.96;93.72;101065.53;4996476;28;20160;-54
2023/05/06 06:45:17;;;;;;;0.55;0.55;;;;;;;11.94;93.42;101065.13;4973312;28;20448;-51
2023/05/06 06:47:43;;;;;;;2.17;0.93;;;;;;;11.96;94.12;101062.84;4991784;28;20042;-52
2023/05/06 06:50:09;;;;;;;1.95;1.15;;;;;;;12.02;93.49;101069.50;5006870;28;20034;-57
2023/05/06 06:52:34;;;;;;;1.17;0.90;;;;;;;12.24;93.03;101071.50;5009680;28;20044;-55
2023/05/06 06:55:00;;;;;;;0.98;0.70;;;;;;;12.09;93.71;101075.06;5008260;28;20101;-54
2023/05/06 06:57:26;;;;;;;1.15;0.88;;;;;;;12.20;93.23;101072.56;4978339;28;20312;-53
2023/05/06 06:59:52;;;;;;;2.80;1.65;;;;;;;12.17;93.32;101073.28;5003918;28;20037;-55
2023/05/06 07:02:21;;;;;;;1.40;1.13;;;;;;;12.25;93.16;101083.88;4982806;28;20030;-58
2023/05/06 07:04:47;;;;;;;2.80;1.25;;;;;;;12.29;92.10;101081.25;5007340;28;20038;-57
2023/05/06 07:07:13;;;;;;;8.13;1.45;;;;;;;12.18;92.26;101083.72;4981080;28;20038;-59
2023/05/06 07:09:38;;;;;;;1.85;0.90;;;;;;;11.98;92.70;101082.13;5008731;28;20149;-59
2023/05/06 07:12:07;;;;;;;2.15;0.95;;;;;;;12.15;92.48;101084.47;5001942;28;20037;-60
2023/05/06 07:14:33;;;;;;;2.83;1.00;;;;;;;12.19;92.27;101093.41;5004766;28;20448;-60
2023/05/06 07:17:01;;;;;;;0.95;0.70;;;;;;;12.20;92.94;101094.19;4990559;28;20037;-60
2023/05/06 07:19:28;;;;;;;1.67;0.95;;;;;;;12.23;92.87;101099.63;4991660;28;20092;-59
2023/05/06 07:21:54;;;;;;;1.38;1.05;;;;;;;12.11;92.21;101094.41;5001250;28;20167;-58
2023/05/06 07:24:19;;;;;;;1.75;1.05;;;;;;;11.96;92.95;101102.53;4999834;28;20456;-59
2023/05/06 07:26:46;;;;;;;2.90;1.23;;;;;;;11.82;94.67;101103.00;5009734;28;20041;-60
2023/05/06 07:29:11;;;;;;;1.95;1.13;;;;;;;12.04;93.96;101104.25;5008279;28;20108;-60
2023/05/06 07:31:37;;;;;;;0.98;0.88;;;;;;;12.11;93.20;101109.81;4997989;28;20105;-60
2023/05/06 07:34:02;;;;;;;1.67;0.93;;;;;;;12.07;93.60;101112.44;5005195;28;20405;-59
2023/05/06 07:36:28;;;;;;;1.10;0.93;;;;;;;12.26;92.45;101109.75;5010025;28;20022;-59
2023/05/06 07:38:54;;;;;;;0.80;0.80;;;;;;;12.33;92.33;101112.59;4993351;28;20398;-60
2023/05/06 07:41:19;;;;;;;2.47;1.10;;;;;;;12.33;92.46;101119.94;5009344;28;20056;-59
2023/05/06 07:43:45;;;;;;;1.58;0.93;;;;;;;12.31;92.64;101117.56;4997708;28;20112;-59
2023/05/06 07:46:10;;;;;;;1.52;0.98;;;;;;;12.18;93.05;101109.94;5006461;28;20034;-57
2023/05/06 07:48:36;;;;;;;2.72;1.40;;;;;;;12.15;93.77;101116.84;5007904;28;20111;-57
2023/05/06 07:51:02;;;;;;;2.63;1.42;;;;;;;12.25;93.78;101129.00;4982129;28;20275;-60
2023/05/06 07:53:28;;;;;;;1.98;1.50;;;;;;;11.86;95.84;101121.97;4995579;28;20030;-58
2023/05/06 07:56:01;;;;;;;0.90;0.70;;;;;;;12.09;95.06;101120.97;5004207;28;20033;-60
2023/05/06 07:58:28;;;;;;;1.75;1.25;;;;;;;12.27;95.02;101127.50;5005373;28;20481;-58
2023/05/06 08:00:56;;;;;;;2.50;1.30;;;;;;;12.30;94.78;101126.81;5005201;28;20058;-58
2023/05/06 08:03:22;;;;;;;1.27;0.98;;;;;;;12.46;93.77;101132.94;5005479;28;20117;-60
2023/05/06 08:05:50;;;;;;;1.50;1.20;;;;;;;12.34;94.59;101140.38;5012101;28;20030;-58
2023/05/06 08:08:16;;;;;;;1.35;1.00;;;;;;;12.59;93.41;101145.16;5008268;28;20117;-59
2023/05/06 08:10:43;;;;;;;1.65;0.88;;;;;;;12.44;93.30;101148.72;5010397;28;20105;-58
2023/05/06 08:13:08;;;;;;;3.08;1.58;;;;;;;12.32;93.50;101143.44;5004409;28;20030;-60
2023/05/06 08:15:34;;;;;;;2.65;1.23;;;;;;;12.41;93.52;101156.72;5005063;28;20053;-59
2023/05/06 08:17:59;;;;;;;1.42;1.00;;;;;;;12.58;92.74;101167.16;5003715;28;20631;-60
2023/05/06 08:20:25;;;;;;;2.25;0.90;;;;;;;12.52;92.96;101166.63;5005104;28;20038;-60
2023/05/06 08:22:51;;;;;;;1.52;0.98;;;;;;;12.22;92.99;101160.19;5012053;28;20022;-59
2023/05/06 08:25:16;;;;;;;2.00;1.17;;;;;;;12.22;94.46;101159.41;5011584;28;20033;-62
2023/05/06 08:27:41;;;;;;;1.52;0.98;;;;;;;12.09;94.55;101161.47;4998459;28;20380;-59
2023/05/06 08:30:07;;;;;;;1.05;0.95;;;;;;;12.15;95.28;101159.25;5011343;28;20508;-59
2023/05/06 08:32:33;;;;;;;2.13;1.08;;;;;;;12.35;94.92;101168.97;5007166;28;20026;-58
2023/05/06 08:34:59;;;;;;;1.75;1.35;;;;;;;12.57;93.52;101168.25;5010265;28;20060;-59
2023/05/06 08:37:25;;;;;;;2.00;1.02;;;;;;;12.56;93.07;101170.19;4999275;28;20042;-59
2023/05/06 08:39:50;;;;;;;2.47;1.38;;;;;;;12.60;91.48;101175.69;4988772;28;20400;-59
2023/05/06 08:42:16;;;;;;;1.23;1.13;;;;;;;12.30;92.60;101183.53;5003194;28;20408;-59
2023/05/06 08:44:43;;;;;;;2.80;1.38;;;;;;;12.54;91.84;101175.16;5006136;28;20042;-60
2023/05/06 08:47:09;;;;;;;1.15;0.98;;;;;;;12.61;91.01;101180.72;4998380;28;20025;-60
2023/05/06 08:49:34;;;;;;;1.27;1.17;;;;;;;12.54;90.98;101177.84;4998473;28;20034;-58
2023/05/06 08:52:05;;;;;;;3.35;0.82;;;;;;;12.57;91.34;101182.56;5002366;28;20067;-60
2023/05/06 08:54:34;;;;;;;1.40;0.77;;;;;;;12.55;91.21;101182.13;5007159;28;20045;-60
2023/05/06 08:57:03;;;;;;;2.60;1.00;;;;;;;12.64;91.15;101184.63;5004865;28;20040;-60
2023/05/06 08:59:31;;;;;;;0.95;0.80;;;;;;;12.67;90.80;101192.03;5011489;28;20070;-59
2023/05/06 09:01:59;;;;;;;1.50;1.08;;;;;;;12.47;91.57;101193.13;5001488;28;20034;-58
2023/05/06 09:04:24;;;;;;;2.30;1.23;;;;;;;12.55;91.76;101195.66;5008358;28;20161;-60
2023/05/06 09:06:50;;;;;;;2.40;1.30;;;;;;;12.49;90.85;101191.66;5010129;28;20050;-59
2023/05/06 09:09:15;;;;;;;2.53;0.90;;;;;;;12.40;91.26;101191.09;5011219;28;20044;-60
2023/05/06 09:11:41;;;;;;;1.60;1.27;;;;;;;12.54;91.31;101194.06;5002850;28;20057;-59
2023/05/06 09:14:12;;;;;;;1.65;1.35;;;;;;;12.61;91.05;101188.81;4982292;28;20056;-60
2023/05/06 09:16:40;;;;;;;1.73;1.10;;;;;;;12.78;89.87;101190.31;5003134;28;20034;-59
2023/05/06 09:19:05;;;;;;;1.30;1.17;;;;;;;12.63;89.69;101194.66;4999802;28;20125;-60
2023/05/06 09:21:33;;;;;;;2.38;1.92;;;;;;;12.67;90.28;101192.81;5002881;28;20133;-60
2023/05/06 09:23:59;;;;;;;1.85;1.15;;;;;;;12.56;90.73;101199.91;5011125;28;20041;-58
2023/05/06 09:26:27;;;;;;;1.42;1.08;;;;;;;12.66;90.92;101190.44;5003957;28;20416;-60
2023/05/06 09:28:52;;;;;;;1.63;1.20;;;;;;;12.65;90.56;101200.50;5010945;28;20112;-60
2023/05/06 09:31:18;;;;;;;3.28;1.58;;;;;;;12.75;90.48;101204.56;5002606;28;20109;-60
2023/05/06 09:33:43;;;;;;;2.30;1.25;;;;;;;12.89;90.55;101206.75;5007565;28;20042;-56
2023/05/06 09:36:12;;;;;;;2.08;1.30;;;;;;;12.92;90.32;101200.63;5010374;28;20025;-57
2023/05/06 09:38:39;;;;;;;3.53;1.30;;;;;;;13.05;89.98;101197.44;4986164;28;20036;-59
2023/05/06 09:41:06;;;;;;;3.88;1.48;;;;;;;12.96;90.40;101209.59;4996310;28;20034;-58
2023/05/06 09:43:32;;;;;;;1.45;1.33;;;;;;;13.02;90.62;101208.16;5007172;28;20172;-60
2023/05/06 09:45:58;;;;;;;6.00;1.17;;;;;;;13.06;90.58;101214.44;5009389;28;20588;-59
2023/05/06 09:48:28;;;;;;;1.08;0.98;;;;;;;12.98;89.98;101196.50;5004863;28;20037;-59
2023/05/06 09:50:54;;;;;;;2.22;1.00;;;;;;;13.02;90.18;101205.47;4993740;28;20055;-59
2023/05/06 09:53:22;;;;;;;1.52;1.13;;;;;;;13.21;90.33;101206.25;4987039;28;20489;-59
2023/05/06 09:55:48;;;;;;;1.70;1.17;;;;;;;13.28;89.78;101211.00;5010336;28;20524;-61
2023/05/06 09:58:19;;;;;;;2.25;1.17;;;;;;;13.37;89.90;101214.28;4991232;28;20038;-59
2023/05/06 10:00:45;;;;;;;1.50;0.80;;;;;;;13.41;89.07;101215.13;5005921;28;20038;-59
2023/05/06 10:03:12;;;;;;;2.25;1.10;;;;;;;13.11;88.97;101222.28;5003257;28;20065;-59
2023/05/06 10:05:38;;;;;;;1.30;1.00;;;;;;;13.18;89.30;101225.13;5000821;28;20076;-60
2023/05/06 10:08:06;;;;;;;2.03;1.15;;;;;;;13.18;88.79;101227.84;5009485;28;20504;-58
2023/05/06 10:10:33;;;;;;;2.45;1.02;;;;;;;13.24;88.92;101224.47;5008546;28;20210;-60
2023/05/06 10:13:03;;;;;;;2.33;1.63;;;;;;;13.30;88.64;101231.16;5010187;28;20032;-60
2023/05/06 10:15:31;;;;;;;2.08;1.70;;;;;;;13.26;88.80;101227.59;5000674;28;20370;-59
2023/05/06 10:17:58;;;;;;;5.10;1.50;;;;;;;13.26;88.87;101234.91;5008204;28;20041;-59
2023/05/06 10:20:26;;;;;;;2.42;1.17;;;;;;;13.18;88.89;101227.84;4984194;28;20030;-59
2023/05/06 10:23:05;;;;;;;1.42;1.25;;;;;;;13.12;88.36;101230.03;4999634;28;20041;-60
2023/05/06 10:25:38;;;;;;;1.42;0.80;;;;;;;13.25;88.54;101236.06;4999278;28;20053;-60
2023/05/06 10:28:06;;;;;;;3.25;1.52;;;;;;;13.27;88.61;101220.25;5009748;28;20033;-60
2023/05/06 10:30:36;;;;;;;2.15;1.45;;;;;;;13.21;88.74;101232.50;5005186;28;20041;-59
2023/05/06 10:33:07;;;;;;;2.42;1.25;;;;;;;13.15;87.94;101229.31;5000277;28;20044;-60
2023/05/06 10:36:10;;;;;;;2.00;0.75;;;;;;;13.20;87.59;101236.38;5004334;28;20028;-58
2023/05/06 10:38:42;;;;;;;1.90;1.15;;;;;;;12.95;88.11;101235.84;5004636;28;20069;-60
2023/05/06 10:41:08;;;;;;;2.25;1.33;;;;;;;12.91;88.97;101234.97;4994541;28;20480;-60
2023/05/06 10:43:38;;;;;;;0.57;0.57;;;;;;;12.93;89.01;101229.25;5006703;28;20033;-60
2023/05/06 10:46:05;;;;;;;1.25;0.82;;;;;;;12.72;90.30;101231.50;5002749;28;20030;-62
2023/05/06 10:48:31;;;;;;;2.80;1.50;;;;;;;12.81;89.73;101221.25;5006344;28;20049;-60
2023/05/06 10:51:12;;;;;;;2.33;0.98;;;;;;;12.89;89.90;101229.13;5001479;28;20560;-60
2023/05/06 10:54:06;;;;;;;1.98;0.77;;;;;;;13.10;89.71;101231.53;5006005;28;20061;-60
2023/05/06 10:56:38;;;;;;;1.25;0.98;;;;;;;13.14;89.18;101238.56;5004322;28;20026;-58
2023/05/06 10:59:09;;;;;;;1.50;0.88;;;;;;;13.23;88.73;101231.03;4991668;28;20400;-58
2023/05/06 11:01:39;;;;;;;4.57;1.52;;;;;;;13.13;89.00;101238.91;5009155;28;20041;-60
2023/05/06 11:04:12;;;;;;;1.40;0.80;;;;;;;13.07;89.40;101227.63;5008891;28;20065;-59
2023/05/06 11:06:45;;;;;;;4.72;1.27;;;;;;;13.12;89.16;101235.44;4997393;28;20480;-59
2023/05/06 11:09:15;;;;;;;1.42;0.77;;;;;;;13.22;88.52;101228.69;5006966;28;20497;-60
2023/05/06 11:12:05;;;;;;;2.13;1.40;;;;;;;13.27;88.01;101231.09;4989215;28;20400;-60
2023/05/06 11:14:37;;;;;;;4.70;1.15;;;;;;;13.26;89.00;101238.41;4982064;28;20168;-59
2023/05/06 11:17:07;;;;;;;3.80;1.13;;;;;;;13.34;88.77;101234.69;5007448;28;20088;-60
2023/05/06 11:19:38;;;;;;;0.75;0.70;;;;;;;13.13;88.52;101239.72;4981845;28;20061;-58
2023/05/06 11:22:05;;;;;;;2.80;1.00;;;;;;;13.23;87.91;101241.84;5003728;28;20096;-59
2023/05/06 11:24:42;;;;;;;1.92;1.48;;;;;;;13.19;87.46;101235.56;5004445;28;20143;-60
2023/05/06 11:27:08;;;;;;;2.97;0.95;;;;;;;13.18;88.02;101238.66;4983773;28;20185;-58